Station: PARNDANA CFS AWS

  Atmospheric Gas Attenuation - ITU Rec 676-11   --------------- db/100km ---------------
Date Time Temp RH % AH g/m3 Dew Point Wind Direction Speed kph Gust kph Barometer mB Rainfall Since 9am 24GHz 47GHz 76GHz 122GHz 134GHz 241GHz
24 18:30 34.6 15 5.81 4.2 13 20 1013.1 0 13.0 17.4 22.8 59.3 49.3 168.4
24 18:20 34.7 15 5.84 4.2 19 22 1013.1 0 13.0 17.4 22.9 59.5 49.5 169.2
24 18:10 35 14 5.54 3.5 19 20 1013.1 0 12.4 17.0 22.0 57.1 46.6 159.1
24 18:00 35.2 14 5.6 3.7 17 26 1013.1 0 12.5 17.0 22.1 57.4 47.1 160.6
24 17:50 35.2 14 5.6 3.7 15 17 1013.1 0 12.5 17.0 22.1 57.4 47.1 160.6
24 17:40 34 16 6.01 4.6 9 9 1013.1 0 13.4 17.7 23.5 61.2 51.5 176.1
24 17:30 33.2 17 6.12 4.9 17 24 1013.1 0 13.6 18.0 24.1 62.7 53.0 181.3
24 17:20 33.1 18 6.44 5.6 15 19 1013.1 0 14.3 18.4 25.0 65.2 56.1 192.2
24 17:10 32.7 19 6.66 6 17 20 1013.1 0 14.8 18.7 25.7 67.2 58.5 200.5
24 17:00 32.3 19 6.52 5.7 19 28 1013.1 0 14.5 18.6 25.5 66.4 57.4 196.7
24 16:50 32.5 18 6.24 5.1 20 24 1013.1 0 13.9 18.2 24.6 64.1 54.6 186.8
24 16:40 32.6 19 6.62 6 20 22 1013.1 0 14.7 18.7 25.7 66.9 58.1 199.3
24 16:30 33.7 19 7.02 6.9 24 37 1013.1 0 15.5 18.9 26.5 69.2 61.2 210.2
24 16:20 32.9 21 7.44 7.7 22 28 1013.1 0 16.3 19.6 28.0 73.2 65.9 226.6
24 16:10 32 23 7.77 8.2 24 30 1013.1 0 17.0 20.2 29.3 76.6 69.9 240.7
24 16:00 32.1 24 8.15 9 22 26 1013.1 0 17.8 20.6 30.4 79.6 73.7 253.9
24 15:50 33.6 22 8.09 8.9 24 28 1013.1 0 17.6 20.2 29.7 77.8 71.7 247.3
24 15:40 32.1 24 8.15 9 22 28 1013.1 0 17.8 20.6 30.4 79.6 73.7 253.9
24 15:30 33.4 23 8.37 9.4 22 32 1013.1 0 18.2 20.6 30.6 80.2 74.7 257.8
24 15:20 35 19 7.52 7.9 17 19 1013.1 0 16.4 19.3 27.5 72.0 65.0 223.8
24 15:10 36.1 10 4.19 -0.3 11 17 1013.1 0 9.6 15.4 18.2 47.0 34.4 116.0
24 15:00 35.8 11 4.54 0.8 11 17 1013.1 0 10.3 15.8 19.1 49.5 37.5 126.9
24 14:50 35.1 11 4.37 0.2 15 17 1013.1 0 10.0 15.7 18.8 48.7 36.3 122.8
24 14:40 34.6 12 4.65 1 17 20 1013.1 0 10.6 16.1 19.7 51.0 39.0 132.0
24 14:30 34.8 12 4.7 1.2 20 26 1013.1 0 10.7 16.1 19.8 51.2 39.3 133.3
24 14:20 34.8 13 5.09 2.3 22 26 1013.1 0 11.5 16.5 20.8 54.0 42.7 145.3
24 14:10 35.4 12 4.85 1.6 24 26 1013.1 0 11.0 16.2 20.0 51.9 40.4 136.9
24 14:00 35.6 12 4.9 1.8 26 33 1013.1 0 11.1 16.2 20.1 52.2 40.7 138.2
24 13:50 36.7 11 4.75 1.4 30 33 1013.1 0 10.7 15.8 19.5 50.5 38.9 131.9
24 13:40 36.7 10 4.32 0.1 30 33 1013.1 0 9.9 15.4 18.4 47.5 35.3 119.1
24 13:30 38.8 9 4.33 0.3 28 43 1013.1 0 9.8 15.1 18.0 46.5 34.5 116.6
24 13:20 38.2 9 4.2 -0.2 32 37 1013.1 0 9.6 15.0 17.8 45.9 33.7 113.6
24 13:10 38.5 9 4.26 0 30 37 1013.1 0 9.7 15.1 17.9 46.2 34.1 115.0
24 13:00 37.1 10 4.41 0.4 26 37 1013.1 0 10.1 15.4 18.5 47.9 35.9 121.2
24 12:50 37.2 10 4.43 0.5 28 33 1013.1 0 10.1 15.4 18.6 48.0 36.0 121.7
24 12:40 37.9 10 4.59 1 28 32 1013.1 0 10.4 15.5 18.8 48.7 37.0 125.4
24 12:30 37.6 10 4.52 0.8 26 33 1013.1 0 10.3 15.5 18.7 48.4 36.6 123.8
24 12:20 37.3 11 4.9 1.9 22 30 1013.1 0 11.0 15.9 19.7 51.2 39.9 135.5
24 12:10 37.5 10 4.5 0.7 22 28 1013.1 0 10.2 15.5 18.7 48.3 36.4 123.3
24 12:00 36.6 11 4.73 1.4 26 35 1013.1 0 10.7 15.8 19.5 50.4 38.8 131.5
24 11:50 36.6 11 4.73 1.3 30 37 1013.1 0 10.7 15.8 19.5 50.4 38.8 131.5
24 11:40 35.6 11 4.49 0.6 20 24 1013.1 0 10.3 15.7 19.1 49.3 37.2 125.7
24 11:30 35.6 11 4.49 0.6 19 26 1013.1 0 10.3 15.7 19.1 49.3 37.2 125.7
24 11:20 35.1 11 4.37 0.2 20 24 1013.1 0 10.0 15.7 18.8 48.7 36.3 122.8
24 11:10 34.9 11 4.33 0.1 26 30 1013.1 0 9.9 15.7 18.8 48.6 36.1 121.8
24 11:00 34.5 11 4.24 -0.2 17 26 1013.1 0 9.8 15.7 18.6 48.2 35.5 119.7
24 10:50 33.5 14 5.12 2.3 15 19 1013.1 0 11.6 16.8 21.2 55.0 43.7 148.5
24 10:40 32.8 15 5.29 2.7 19 24 1013.1 0 12.0 17.1 21.8 56.7 45.6 155.1
24 10:30 32.2 17 5.8 4.1 13 19 1013.1 0 13.0 17.8 23.4 60.9 50.6 172.8
24 10:20 31.3 18 5.86 4.1 15 19 1013.1 0 13.2 18.0 23.8 62.0 51.7 176.7
24 10:10 30.8 20 6.33 5.2 11 11 1013.1 0 14.1 18.7 25.3 66.1 56.6 193.6
24 10:00 30 20 6.07 4.6 13 17 1013.1 0 13.6 18.5 24.8 64.6 54.6 186.5
24 09:50 29.9 21 6.34 5.2 9 9 1013.1 0 14.2 18.9 25.6 66.9 57.3 196.0
24 09:40 29.6 20 5.94 4.2 11 17 1013.1 0 13.4 18.4 24.5 63.9 53.6 183.0
24 09:30 29.7 20 5.97 4.4 13 20 1013.1 0 13.4 18.4 24.6 64.1 53.8 183.8
24 09:20 29.8 19 5.7 3.7 13 15 1013.1 0 12.9 18.1 23.8 61.9 51.1 174.4
24 09:10 29.4 19 5.58 3.3 17 22 1013.1 0 12.7 18.0 23.6 61.3 50.2 171.1
24 09:00 28.9 20 5.71 3.7 15 19 1013.1 0 12.9 18.3 24.1 62.6 51.8 176.6
24 08:50 28.5 22 6.15 4.7 15 15 1013.1 0 13.9 18.9 25.5 66.4 56.3 192.6
24 08:40 28.4 22 6.12 4.6 11 15 1013.1 0 13.8 18.9 25.4 66.3 56.1 191.8
24 08:30 28.8 20 5.68 3.6 13 20 1013.1 0 12.9 18.3 24.0 62.5 51.5 175.7
24 08:20 28.7 21 5.93 4.2 19 24 1013.1 0 13.4 18.6 24.8 64.5 54.0 184.6
24 08:10 27.9 24 6.49 5.4 13 17 1013.1 0 14.6 19.4 26.7 69.7 60.2 206.1
24 08:00 27.9 24 6.49 5.5 15 20 1013.1 0 14.6 19.4 26.7 69.7 60.2 206.1
24 07:50 27.9 24 6.49 5.4 15 19 1013.1 0 14.6 19.4 26.7 69.7 60.2 206.1
24 07:40 28 24 6.53 5.5 13 15 1013.1 0 14.7 19.5 26.8 69.9 60.5 207.2
24 07:30 27.9 25 6.76 6.1 17 24 1013.1 0 15.1 19.8 27.5 71.9 62.9 215.7
24 07:20 27.7 25 6.69 5.9 17 19 1013.1 0 15.0 19.7 27.4 71.5 62.4 213.7
24 07:10 27.6 26 6.92 6.3 17 19 1013.1 0 15.5 20.0 28.1 73.5 64.8 222.3
24 07:00 27 28 7.21 6.9 13 19 1013.1 0 16.1 20.5 29.3 76.5 68.3 234.6
24 06:50 26.8 28 7.13 7.2 13 15 1013.1 0 15.9 20.5 29.1 76.0 67.6 232.2
24 06:40 26.1 31 7.59 7.6 11 13 1013.1 0 16.9 21.2 30.8 80.6 73.1 251.4
24 06:30 26.3 30 7.43 7.4 9 11 1013.1 0 16.6 21.0 30.2 79.0 71.2 244.8
24 06:20 26.3 30 7.43 7.3 9 9 1013.1 0 16.6 21.0 30.2 79.0 71.2 244.8
24 06:10 26.2 31 7.63 7.7 9 11 1013.1 0 17.0 21.3 30.9 80.9 73.5 252.6
24 06:00 26 32 7.79 8 11 13 1013.1 0 17.3 21.5 31.5 82.5 75.4 259.3
24 05:50 26 30 7.3 7.5 11 11 1013.1 0 16.3 20.9 29.9 78.2 70.1 240.8
24 05:40 26.4 30 7.47 7.4 11 13 1013.1 0 16.7 21.0 30.3 79.3 71.6 246.0
24 05:30 26.6 30 7.55 7.6 17 22 1013.1 0 16.8 21.1 30.5 79.8 72.3 248.4
24 05:20 26.7 30 7.59 7.7 19 24 1013.1 0 16.9 21.1 30.6 80.1 72.6 249.6
24 04:50 26.9 28 7.17 6.8 17 20 1013.1 0 16.0 20.5 29.2 76.2 68.0 233.4
24 04:40 26.7 29 7.34 7.2 15 17 1013.1 0 16.4 20.8 29.8 77.9 69.9 240.3
24 04:30 26.6 29 7.3 7.1 17 24 1013.1 0 16.3 20.7 29.7 77.6 69.6 239.0
24 04:20 26.7 29 7.34 7.2 17 20 1013.1 0 16.4 20.8 29.8 77.9 69.9 240.3
24 04:10 26.6 30 7.55 7.6 19 22 1013.1 0 16.8 21.1 30.5 79.8 72.3 248.4
24 04:00 26.4 31 7.72 7.9 17 24 1013.1 0 17.2 21.3 31.1 81.5 74.3 255.4
24 03:50 26 32 7.79 8 15 19 1013.1 0 17.3 21.5 31.5 82.5 75.4 259.3
24 03:40 26 32 7.79 8 19 22 1013.1 0 17.3 21.5 31.5 82.5 75.4 259.3
24 03:30 26.1 31 7.59 7.7 19 24 1013.1 0 16.9 21.2 30.8 80.6 73.1 251.4
24 03:20 26.2 31 7.63 7.7 20 24 1013.1 0 17.0 21.3 30.9 80.9 73.5 252.6
24 03:10 26 32 7.79 8 19 20 1013.1 0 17.3 21.5 31.5 82.5 75.4 259.3
24 03:00 25.6 33 7.86 8.1 17 22 1013.1 0 17.5 21.7 31.9 83.5 76.5 263.3
24 02:50 24.8 36 8.19 8.7 17 19 1013.1 0 18.2 22.4 33.3 87.3 81.0 278.8
24 02:40 24.3 37 8.19 9 13 17 1013.1 0 18.2 22.5 33.5 87.8 81.5 280.5
24 02:30 24.5 37 8.28 8.9 13 19 1013.1 0 18.4 22.6 33.7 88.4 82.3 283.4
24 02:20 24.9 36 8.24 8.8 13 17 1013.1 0 18.3 22.4 33.5 87.7 81.4 280.4
24 02:10 25.2 35 8.15 8.6 15 17 1013.1 0 18.1 22.2 33.0 86.5 80.1 275.9
24 02:00 25.2 34 7.92 8.2 13 20 1013.1 0 17.6 21.9 32.2 84.5 77.6 266.9
24 01:50 25.3 34 7.96 8.3 17 20 1013.1 0 17.7 21.9 32.3 84.7 77.9 268.1
24 01:40 25.1 34 7.87 8.5 15 17 1013.1 0 17.5 21.9 32.1 84.1 77.1 265.3

Last Refresh: 24-Jan-2021 18:41:19

Most of the information presented on this site is sourced from the Bureau of Meteorology.  Copyright in all material sourced from the Bureau of Meteorology resides with the Commonwealth of Australia.